Time;durP1;ratioP1;P1;durP2;ratioP2;P2;SDS_P1;SDS_P2;PMS_P1;PMS_P2;Temp;Humidity;BMP_temperature;BMP_pressure;BME280_temperature;BME280_humidity;BME280_pressure;Samples;Min_cycle;Max_cycle;Signal;HPM_P1;HPM_P2
2021/04/29 00:00:42;;;;;;;15.43;9.10;;;;;;;;;;4991836;28;20505;-70
2021/04/29 00:03:08;;;;;;;14.00;9.07;;;;;;;;;;5004756;28;20474;-71
2021/04/29 00:05:34;;;;;;;20.30;9.53;;;;;;;;;;5005554;28;20463;-70
2021/04/29 00:08:01;;;;;;;15.50;9.13;;;;;;;;;;4992309;28;20454;-71
2021/04/29 00:10:32;;;;;;;13.10;9.67;;;;;;;;;;5006257;28;20447;-70
2021/04/29 00:12:58;;;;;;;12.60;8.80;;;;;;;;;;4988689;28;20465;-71
2021/04/29 00:15:24;;;;;;;12.23;9.43;;;;;;;;;;4989060;28;20535;-70
2021/04/29 00:17:50;;;;;;;14.93;9.53;;;;;;;;;;4991787;28;20443;-70
2021/04/29 00:20:21;;;;;;;14.03;10.03;;;;;;;;;;5003999;28;20439;-71
2021/04/29 00:22:47;;;;;;;15.83;8.90;;;;;;;;;;5005151;28;20467;-70
2021/04/29 00:25:13;;;;;;;16.23;9.87;;;;;;;;;;5004873;28;20434;-71
2021/04/29 00:27:39;;;;;;;16.53;11.50;;;;;;;;;;5002682;28;20955;-70
2021/04/29 00:30:07;;;;;;;11.97;9.43;;;;;;;;;;4991631;28;20438;-70
2021/04/29 00:32:33;;;;;;;12.80;10.47;;;;;;;;;;4988738;28;20493;-71
2021/04/29 00:34:59;;;;;;;12.17;9.30;;;;;;;;;;5004386;28;20489;-70
2021/04/29 00:37:25;;;;;;;21.07;10.30;;;;;;;;;;4991317;28;20880;-70
2021/04/29 00:39:51;;;;;;;15.63;10.17;;;;;;;;;;4993763;28;21108;-71
2021/04/29 00:42:18;;;;;;;23.20;11.50;;;;;;;;;;5004392;28;20543;-70
2021/04/29 00:44:44;;;;;;;17.57;11.37;;;;;;;;;;4986720;28;20436;-71
2021/04/29 00:47:10;;;;;;;17.03;10.97;;;;;;;;;;5012532;28;21006;-71
2021/04/29 00:49:36;;;;;;;13.37;10.60;;;;;;;;;;5003640;28;20432;-70
2021/04/29 00:52:02;;;;;;;15.57;11.10;;;;;;;;;;5006114;28;20447;-71
2021/04/29 00:54:28;;;;;;;17.63;11.20;;;;;;;;;;4987676;28;20435;-70
2021/04/29 00:56:54;;;;;;;14.93;11.20;;;;;;;;;;4999390;28;21044;-70
2021/04/29 00:59:20;;;;;;;14.97;10.77;;;;;;;;;;4982756;28;20456;-72
2021/04/29 01:01:47;;;;;;;21.77;11.87;;;;;;;;;;4992804;28;20462;-72
2021/04/29 01:04:13;;;;;;;16.83;10.90;;;;;;;;;;5001791;28;20482;-71
2021/04/29 01:06:43;;;;;;;14.07;10.30;;;;;;;;;;5005992;28;20450;-71
2021/04/29 01:09:11;;;;;;;14.43;11.50;;;;;;;;;;5030482;28;20510;-71
2021/04/29 01:11:39;;;;;;;16.40;11.47;;;;;;;;;;4990324;28;20424;-71
2021/04/29 01:14:05;;;;;;;16.53;11.17;;;;;;;;;;5006462;28;22777;-71
2021/04/29 01:16:32;;;;;;;21.10;11.73;;;;;;;;;;4989969;28;20510;-70
2021/04/29 01:18:58;;;;;;;18.23;11.67;;;;;;;;;;4986856;28;20440;-70
2021/04/29 01:21:27;;;;;;;16.23;12.10;;;;;;;;;;5007596;28;22839;-70
2021/04/29 01:24:08;;;;;;;20.73;10.70;;;;;;;;;;5000330;28;20455;-70
2021/04/29 01:26:39;;;;;;;15.53;9.73;;;;;;;;;;5001778;28;20517;-72
2021/04/29 01:29:13;;;;;;;18.03;12.10;;;;;;;;;;4990791;28;20439;-70
2021/04/29 01:31:40;;;;;;;14.70;11.53;;;;;;;;;;5003078;28;21013;-70
2021/04/29 01:34:07;;;;;;;15.70;11.37;;;;;;;;;;4991130;28;20445;-70
2021/04/29 01:36:34;;;;;;;17.43;10.90;;;;;;;;;;4990552;28;20482;-70
2021/04/29 01:39:03;;;;;;;17.03;10.97;;;;;;;;;;4983556;28;20475;-70
2021/04/29 01:41:29;;;;;;;17.97;12.03;;;;;;;;;;5003256;28;20494;-70
2021/04/29 01:43:56;;;;;;;17.73;11.30;;;;;;;;;;5001312;28;20442;-70
2021/04/29 01:46:22;;;;;;;14.30;10.00;;;;;;;;;;4988402;28;20464;-71
2021/04/29 01:48:48;;;;;;;14.83;10.80;;;;;;;;;;5004770;28;20440;-70
2021/04/29 01:51:14;;;;;;;15.77;11.40;;;;;;;;;;4985116;28;21221;-70
2021/04/29 01:53:40;;;;;;;20.37;12.90;;;;;;;;;;4991951;28;20443;-70
2021/04/29 01:56:07;;;;;;;21.67;12.03;;;;;;;;;;5004965;28;20462;-71
2021/04/29 01:58:33;;;;;;;19.70;12.57;;;;;;;;;;4989143;28;20471;-71
2021/04/29 02:01:00;;;;;;;20.07;11.90;;;;;;;;;;5000856;28;21133;-71
2021/04/29 02:03:27;;;;;;;16.80;11.17;;;;;;;;;;4999738;28;21225;-70
2021/04/29 02:05:53;;;;;;;15.73;11.30;;;;;;;;;;5006016;28;20554;-70
2021/04/29 02:08:19;;;;;;;15.90;12.03;;;;;;;;;;5002781;28;20585;-70
2021/04/29 02:10:47;;;;;;;14.13;11.47;;;;;;;;;;4988066;28;20447;-70
2021/04/29 02:13:14;;;;;;;18.37;11.87;;;;;;;;;;5002411;28;20525;-71
2021/04/29 02:15:42;;;;;;;17.67;11.73;;;;;;;;;;5004200;28;21032;-70
2021/04/29 02:18:09;;;;;;;22.57;10.93;;;;;;;;;;4994983;28;20440;-69
2021/04/29 02:20:45;;;;;;;17.37;12.00;;;;;;;;;;5009719;28;20443;-70
2021/04/29 02:23:16;;;;;;;15.93;11.27;;;;;;;;;;5004189;28;20475;-70
2021/04/29 02:25:43;;;;;;;18.50;12.40;;;;;;;;;;5002334;28;20467;-71
2021/04/29 02:28:09;;;;;;;15.13;10.37;;;;;;;;;;5001150;28;20482;-71
2021/04/29 02:30:35;;;;;;;16.57;11.70;;;;;;;;;;4987112;28;20423;-71
2021/04/29 02:33:02;;;;;;;16.53;11.97;;;;;;;;;;4984160;28;20643;-71
2021/04/29 02:35:28;;;;;;;18.13;10.90;;;;;;;;;;4999433;28;20460;-70
2021/04/29 02:37:55;;;;;;;19.47;10.80;;;;;;;;;;5013320;28;20502;-70
2021/04/29 02:40:22;;;;;;;18.70;11.23;;;;;;;;;;5010468;28;20520;-71
2021/04/29 02:42:48;;;;;;;19.80;11.40;;;;;;;;;;4988565;28;20479;-71
2021/04/29 02:45:15;;;;;;;18.47;12.53;;;;;;;;;;5000224;28;20495;-70
2021/04/29 02:47:45;;;;;;;20.53;11.73;;;;;;;;;;4999913;28;22709;-71
2021/04/29 02:50:15;;;;;;;15.77;10.50;;;;;;;;;;4986232;28;20454;-72
2021/04/29 02:52:44;;;;;;;20.77;12.03;;;;;;;;;;5002594;28;20468;-70
2021/04/29 02:55:10;;;;;;;16.83;11.50;;;;;;;;;;5000652;28;20439;-71
2021/04/29 02:57:36;;;;;;;17.13;11.70;;;;;;;;;;5000663;28;20482;-71
2021/04/29 03:00:05;;;;;;;19.40;12.63;;;;;;;;;;5003972;28;21019;-70
2021/04/29 03:02:31;;;;;;;19.37;13.33;;;;;;;;;;5001934;28;20494;-70
2021/04/29 03:04:57;;;;;;;20.90;12.60;;;;;;;;;;4990878;28;20889;-70
2021/04/29 03:07:23;;;;;;;21.33;13.20;;;;;;;;;;5000926;28;20487;-70
2021/04/29 03:09:49;;;;;;;16.03;12.93;;;;;;;;;;4981099;28;20450;-71
2021/04/29 03:12:15;;;;;;;16.73;13.90;;;;;;;;;;5001551;28;20761;-70
2021/04/29 03:14:41;;;;;;;16.70;12.83;;;;;;;;;;4998200;28;21039;-71
2021/04/29 03:17:09;;;;;;;20.50;14.20;;;;;;;;;;5000706;28;20474;-70
2021/04/29 03:19:35;;;;;;;17.67;13.37;;;;;;;;;;4987726;28;20754;-70
2021/04/29 03:22:01;;;;;;;21.80;13.50;;;;;;;;;;5001395;28;21068;-70
2021/04/29 03:24:27;;;;;;;19.13;12.67;;;;;;;;;;5006104;28;20453;-70
2021/04/29 03:26:53;;;;;;;16.77;12.57;;;;;;;;;;5000092;28;25925;-70
2021/04/29 03:29:19;;;;;;;17.97;13.53;;;;;;;;;;5001574;28;20452;-70
2021/04/29 03:31:45;;;;;;;20.90;13.90;;;;;;;;;;4986767;28;20450;-70
2021/04/29 03:34:11;;;;;;;22.93;13.00;;;;;;;;;;4998408;28;21253;-71
2021/04/29 03:36:37;;;;;;;16.77;14.00;;;;;;;;;;5002563;28;21131;-71
2021/04/29 03:39:04;;;;;;;20.70;13.63;;;;;;;;;;5002880;28;20443;-70
2021/04/29 03:41:31;;;;;;;18.53;12.67;;;;;;;;;;5002066;28;20974;-70
2021/04/29 03:43:57;;;;;;;18.93;13.87;;;;;;;;;;5007484;28;20463;-70
2021/04/29 03:46:23;;;;;;;19.10;14.07;;;;;;;;;;5004153;28;20558;-70
2021/04/29 03:48:49;;;;;;;17.40;14.57;;;;;;;;;;4988223;28;20436;-70
2021/04/29 03:51:15;;;;;;;26.63;16.03;;;;;;;;;;4981413;28;20446;-71
2021/04/29 03:53:41;;;;;;;16.67;14.70;;;;;;;;;;4999885;28;20445;-70
2021/04/29 03:56:07;;;;;;;22.00;15.70;;;;;;;;;;4999627;28;20777;-70
2021/04/29 03:58:33;;;;;;;19.63;14.67;;;;;;;;;;5000271;28;20463;-70
2021/04/29 04:00:59;;;;;;;27.23;18.10;;;;;;;;;;4986340;28;20563;-70
2021/04/29 04:03:25;;;;;;;19.93;15.60;;;;;;;;;;4998488;28;20929;-71
2021/04/29 04:05:51;;;;;;;20.73;16.23;;;;;;;;;;5009731;28;20887;-70
2021/04/29 04:08:17;;;;;;;22.80;17.10;;;;;;;;;;4984318;28;20990;-70
2021/04/29 04:10:43;;;;;;;23.53;17.20;;;;;;;;;;4987679;28;20449;-70
2021/04/29 04:13:16;;;;;;;22.27;17.20;;;;;;;;;;4988332;28;20451;-70
2021/04/29 04:15:42;;;;;;;23.80;19.27;;;;;;;;;;4999247;28;20455;-70
2021/04/29 04:18:08;;;;;;;25.47;20.20;;;;;;;;;;4986538;28;20638;-70
2021/04/29 04:20:34;;;;;;;22.83;18.27;;;;;;;;;;5001681;28;21405;-70
2021/04/29 04:23:00;;;;;;;23.37;19.60;;;;;;;;;;4990184;28;20691;-70
2021/04/29 04:25:26;;;;;;;34.63;21.70;;;;;;;;;;5005477;28;20632;-70
2021/04/29 04:27:52;;;;;;;25.87;22.53;;;;;;;;;;4991030;28;20797;-70
2021/04/29 04:30:18;;;;;;;27.03;22.13;;;;;;;;;;5004755;28;20474;-71
2021/04/29 04:32:44;;;;;;;27.10;20.87;;;;;;;;;;5011967;28;20474;-70
2021/04/29 04:35:11;;;;;;;23.90;20.70;;;;;;;;;;4993348;28;20516;-71
2021/04/29 04:37:37;;;;;;;31.43;23.17;;;;;;;;;;5011312;28;20454;-70
2021/04/29 04:40:04;;;;;;;28.27;22.17;;;;;;;;;;5008953;28;20530;-70
2021/04/29 04:42:30;;;;;;;31.03;24.00;;;;;;;;;;4990473;28;20841;-70
2021/04/29 04:44:56;;;;;;;27.33;22.50;;;;;;;;;;5004097;28;20433;-70
2021/04/29 04:47:22;;;;;;;32.90;22.87;;;;;;;;;;5006922;28;21154;-70
2021/04/29 04:49:48;;;;;;;33.60;22.67;;;;;;;;;;4995423;28;20461;-69
2021/04/29 04:52:14;;;;;;;36.20;25.07;;;;;;;;;;5010985;28;20447;-70
2021/04/29 04:54:40;;;;;;;31.93;24.70;;;;;;;;;;5022563;28;20454;-69
2021/04/29 04:57:09;;;;;;;29.97;23.20;;;;;;;;;;5015233;28;20535;-71
2021/04/29 04:59:35;;;;;;;32.20;22.70;;;;;;;;;;5037229;28;20466;-71
2021/04/29 05:02:01;;;;;;;34.00;23.20;;;;;;;;;;5020479;28;20506;-72
2021/04/29 05:04:28;;;;;;;28.80;23.53;;;;;;;;;;5011918;28;20530;-70
2021/04/29 05:06:55;;;;;;;30.13;23.13;;;;;;;;;;5016593;28;20585;-70
2021/04/29 05:09:21;;;;;;;29.63;22.43;;;;;;;;;;5001258;28;20522;-69
2021/04/29 05:11:47;;;;;;;26.20;22.07;;;;;;;;;;5019634;28;20786;-70
2021/04/29 05:14:13;;;;;;;28.37;22.20;;;;;;;;;;5019436;28;20451;-70
2021/04/29 05:16:40;;;;;;;37.50;25.20;;;;;;;;;;5024137;28;20454;-70
2021/04/29 05:19:06;;;;;;;37.00;22.33;;;;;;;;;;5019346;28;20539;-71
2021/04/29 05:21:32;;;;;;;27.47;22.27;;;;;;;;;;5005913;28;20497;-70
2021/04/29 05:23:58;;;;;;;28.43;21.90;;;;;;;;;;5008336;28;20435;-71
2021/04/29 05:26:24;;;;;;;26.93;21.33;;;;;;;;;;5005490;28;20469;-71
2021/04/29 05:28:51;;;;;;;27.80;22.17;;;;;;;;;;5019226;28;20904;-71
2021/04/29 05:31:16;;;;;;;30.23;21.90;;;;;;;;;;5023069;28;21036;-71
2021/04/29 05:33:42;;;;;;;27.63;22.17;;;;;;;;;;5023261;28;20446;-70
2021/04/29 05:36:11;;;;;;;29.80;21.20;;;;;;;;;;5025977;28;20483;-70
2021/04/29 05:38:37;;;;;;;30.00;21.07;;;;;;;;;;5020183;28;20439;-71
2021/04/29 05:41:03;;;;;;;27.17;22.57;;;;;;;;;;5002251;28;20537;-71
2021/04/29 05:43:29;;;;;;;36.23;21.93;;;;;;;;;;5021839;28;21187;-71
2021/04/29 05:45:56;;;;;;;27.17;20.93;;;;;;;;;;5020827;28;20498;-73
2021/04/29 05:48:22;;;;;;;35.40;20.53;;;;;;;;;;5004417;28;20964;-71
2021/04/29 05:50:48;;;;;;;30.67;21.57;;;;;;;;;;5008677;28;20454;-71
2021/04/29 05:53:14;;;;;;;34.03;20.80;;;;;;;;;;5019767;28;20443;-71
2021/04/29 05:55:42;;;;;;;26.80;19.87;;;;;;;;;;5021393;28;20511;-72
2021/04/29 05:58:08;;;;;;;28.37;19.40;;;;;;;;;;5000393;28;20439;-71
2021/04/29 06:00:37;;;;;;;26.30;19.10;;;;;;;;;;5030495;28;20447;-72
2021/04/29 06:03:03;;;;;;;24.10;18.67;;;;;;;;;;5011103;28;21055;-71
2021/04/29 06:05:29;;;;;;;22.03;18.60;;;;;;;;;;5010259;28;20447;-71
2021/04/29 06:07:56;;;;;;;22.70;17.50;;;;;;;;;;5012585;28;20941;-71
2021/04/29 06:10:22;;;;;;;24.37;18.40;;;;;;;;;;5008826;28;20436;-71
2021/04/29 06:12:48;;;;;;;25.30;17.50;;;;;;;;;;5032376;28;20411;-71
2021/04/29 06:15:14;;;;;;;24.00;17.57;;;;;;;;;;5024301;28;20960;-71
2021/04/29 06:17:40;;;;;;;22.30;18.00;;;;;;;;;;5022510;28;20522;-71
2021/04/29 06:20:06;;;;;;;21.93;18.13;;;;;;;;;;5005370;28;20439;-72
2021/04/29 06:22:32;;;;;;;25.67;16.80;;;;;;;;;;5017273;28;20474;-71
2021/04/29 06:24:58;;;;;;;24.07;18.30;;;;;;;;;;5002803;28;20439;-71
2021/04/29 06:27:24;;;;;;;29.70;17.33;;;;;;;;;;5004633;28;20455;-71
2021/04/29 06:29:50;;;;;;;22.97;17.33;;;;;;;;;;5005630;28;20439;-71
2021/04/29 06:32:16;;;;;;;21.73;16.57;;;;;;;;;;5018034;28;20444;-70
2021/04/29 06:34:42;;;;;;;23.13;17.60;;;;;;;;;;5004082;28;20436;-71
2021/04/29 06:37:08;;;;;;;21.70;17.40;;;;;;;;;;5021897;28;21042;-71
2021/04/29 06:39:36;;;;;;;31.80;16.97;;;;;;;;;;4999917;28;20953;-70
2021/04/29 06:42:02;;;;;;;30.30;18.37;;;;;;;;;;5017378;28;20472;-70
2021/04/29 06:44:29;;;;;;;24.33;17.73;;;;;;;;;;5015716;28;20955;-71
2021/04/29 06:46:55;;;;;;;25.37;17.20;;;;;;;;;;5023784;28;20450;-70
2021/04/29 06:49:21;;;;;;;20.90;18.03;;;;;;;;;;5021815;28;20856;-70
2021/04/29 06:51:47;;;;;;;26.97;16.70;;;;;;;;;;5019392;28;20474;-70
2021/04/29 06:54:13;;;;;;;25.10;17.40;;;;;;;;;;5018720;28;20463;-69
2021/04/29 06:56:39;;;;;;;21.47;17.30;;;;;;;;;;5021458;28;20840;-69
2021/04/29 06:59:06;;;;;;;22.87;17.10;;;;;;;;;;5007457;28;20545;-70
2021/04/29 07:01:32;;;;;;;23.60;15.67;;;;;;;;;;5021404;28;20794;-70
2021/04/29 07:03:58;;;;;;;25.47;17.60;;;;;;;;;;5006585;28;20913;-70
2021/04/29 07:06:24;;;;;;;23.33;16.37;;;;;;;;;;5019629;28;20466;-71
2021/04/29 07:08:50;;;;;;;21.30;16.50;;;;;;;;;;5014665;28;21031;-71
2021/04/29 07:11:17;;;;;;;20.80;17.20;;;;;;;;;;4999899;28;20443;-70
2021/04/29 07:13:43;;;;;;;22.80;16.23;;;;;;;;;;4990319;28;20538;-71
2021/04/29 07:16:09;;;;;;;24.93;17.20;;;;;;;;;;5011232;28;20466;-71
2021/04/29 07:18:35;;;;;;;25.50;16.10;;;;;;;;;;5017373;28;21027;-71
2021/04/29 07:21:01;;;;;;;20.33;16.10;;;;;;;;;;5020183;28;20439;-70
2021/04/29 07:23:27;;;;;;;22.10;16.43;;;;;;;;;;5022892;28;20992;-70
2021/04/29 07:25:53;;;;;;;19.57;17.43;;;;;;;;;;5018589;28;20497;-71
2021/04/29 07:28:21;;;;;;;19.30;15.17;;;;;;;;;;5008079;28;20439;-71
2021/04/29 07:30:47;;;;;;;18.53;14.10;;;;;;;;;;4993948;28;20921;-71
2021/04/29 07:33:13;;;;;;;18.33;15.40;;;;;;;;;;5017936;28;20851;-71
2021/04/29 07:35:39;;;;;;;16.60;14.10;;;;;;;;;;5016673;28;21506;-71
2021/04/29 07:38:05;;;;;;;19.53;14.90;;;;;;;;;;5021056;28;20452;-71
2021/04/29 07:40:33;;;;;;;19.63;14.20;;;;;;;;;;5010489;28;20941;-71
2021/04/29 07:42:59;;;;;;;17.80;14.97;;;;;;;;;;5012380;28;21022;-70
2021/04/29 07:45:25;;;;;;;18.80;14.37;;;;;;;;;;5004847;28;20443;-71
2021/04/29 07:47:51;;;;;;;16.43;13.93;;;;;;;;;;4999322;28;20440;-71
2021/04/29 07:50:17;;;;;;;18.63;14.13;;;;;;;;;;5021350;28;20465;-71
2021/04/29 07:52:44;;;;;;;16.23;14.40;;;;;;;;;;5007448;28;20439;-70
2021/04/29 07:55:11;;;;;;;18.43;15.80;;;;;;;;;;5021174;28;20967;-70
2021/04/29 07:57:37;;;;;;;18.50;14.50;;;;;;;;;;5021918;28;25344;-72
2021/04/29 08:00:05;;;;;;;17.40;15.10;;;;;;;;;;5023398;28;20435;-72
2021/04/29 08:02:33;;;;;;;16.10;13.43;;;;;;;;;;5020382;28;20466;-71
2021/04/29 08:04:59;;;;;;;19.10;14.03;;;;;;;;;;5021676;28;20462;-72
2021/04/29 08:07:26;;;;;;;19.83;14.83;;;;;;;;;;5022087;28;20711;-71
2021/04/29 08:09:52;;;;;;;15.37;13.60;;;;;;;;;;5024901;28;20438;-72
2021/04/29 08:12:18;;;;;;;17.53;14.97;;;;;;;;;;5005841;28;20492;-71
2021/04/29 08:14:44;;;;;;;15.43;13.60;;;;;;;;;;5021082;28;20458;-70
2021/04/29 08:17:10;;;;;;;20.53;16.00;;;;;;;;;;4992252;28;20497;-72
2021/04/29 08:19:38;;;;;;;19.30;14.80;;;;;;;;;;5008985;28;20864;-71
2021/04/29 08:22:05;;;;;;;19.40;14.30;;;;;;;;;;5022984;28;20482;-72
2021/04/29 08:24:31;;;;;;;19.90;14.17;;;;;;;;;;5023370;28;20435;-71
2021/04/29 08:26:57;;;;;;;16.93;15.10;;;;;;;;;;4999810;28;20456;-71
2021/04/29 08:29:23;;;;;;;18.23;14.60;;;;;;;;;;5020703;28;20442;-71
2021/04/29 08:31:50;;;;;;;17.27;15.00;;;;;;;;;;5007784;28;20449;-72
2021/04/29 08:34:16;;;;;;;16.93;15.00;;;;;;;;;;5028377;28;20426;-71
2021/04/29 08:36:42;;;;;;;17.80;15.17;;;;;;;;;;5020258;28;20853;-72
2021/04/29 08:39:08;;;;;;;22.87;16.50;;;;;;;;;;5011953;28;20463;-72
2021/04/29 08:41:35;;;;;;;16.80;15.10;;;;;;;;;;5027118;28;20458;-73
2021/04/29 08:44:01;;;;;;;22.67;15.20;;;;;;;;;;5013736;28;20439;-72
2021/04/29 08:46:27;;;;;;;18.70;16.13;;;;;;;;;;5026074;28;20467;-71
2021/04/29 08:48:54;;;;;;;21.90;16.53;;;;;;;;;;5028332;28;20439;-72
2021/04/29 08:51:20;;;;;;;20.23;14.50;;;;;;;;;;5024920;28;20944;-72
2021/04/29 08:53:48;;;;;;;19.57;15.20;;;;;;;;;;5023568;28;20447;-71
2021/04/29 08:56:14;;;;;;;18.10;14.80;;;;;;;;;;5009203;28;20592;-72
2021/04/29 08:58:40;;;;;;;15.60;13.47;;;;;;;;;;5025107;28;20447;-72
2021/04/29 09:01:06;;;;;;;16.80;15.00;;;;;;;;;;5003183;28;20443;-72
2021/04/29 09:03:33;;;;;;;15.60;14.00;;;;;;;;;;5004813;28;20467;-73
2021/04/29 09:06:06;;;;;;;18.30;15.60;;;;;;;;;;5003384;28;20900;-71
2021/04/29 09:08:33;;;;;;;17.00;15.20;;;;;;;;;;5008572;28;21172;-73
2021/04/29 09:11:25;;;;;;;15.83;14.33;;;;;;;;;;5026968;28;20432;-72
2021/04/29 09:14:02;;;;;;;16.43;14.47;;;;;;;;;;4985791;28;20868;-70
2021/04/29 09:16:38;;;;;;;15.27;13.67;;;;;;;;;;5034773;28;20461;-70
2021/04/29 09:19:04;;;;;;;16.93;15.23;;;;;;;;;;5008548;28;20462;-70
2021/04/29 09:21:33;;;;;;;20.10;14.10;;;;;;;;;;5025672;28;20988;-69
2021/04/29 09:23:59;;;;;;;24.43;13.93;;;;;;;;;;5025687;28;20600;-70
2021/04/29 09:26:25;;;;;;;15.23;13.67;;;;;;;;;;5029851;28;20554;-70
2021/04/29 09:28:53;;;;;;;15.87;14.37;;;;;;;;;;5019301;28;20442;-70
2021/04/29 09:31:26;;;;;;;16.63;13.47;;;;;;;;;;5005480;28;20431;-71
2021/04/29 09:33:54;;;;;;;16.00;13.50;;;;;;;;;;5022087;28;20451;-69
2021/04/29 09:36:28;;;;;;;17.57;14.47;;;;;;;;;;5024407;28;20470;-70
2021/04/29 09:38:58;;;;;;;13.93;12.53;;;;;;;;;;5002946;28;20487;-70
2021/04/29 09:41:25;;;;;;;15.90;13.70;;;;;;;;;;5026761;28;20956;-70
2021/04/29 09:43:51;;;;;;;17.03;15.20;;;;;;;;;;5012097;28;20849;-71
2021/04/29 09:46:17;;;;;;;16.97;14.87;;;;;;;;;;5006957;28;20470;-70
2021/04/29 09:48:43;;;;;;;15.23;13.63;;;;;;;;;;5021045;28;20439;-70
2021/04/29 09:51:09;;;;;;;19.40;14.10;;;;;;;;;;5006007;28;20435;-71
2021/04/29 09:53:40;;;;;;;16.50;14.87;;;;;;;;;;5024821;28;20443;-70
2021/04/29 09:56:08;;;;;;;16.53;14.87;;;;;;;;;;5022767;28;20956;-72
2021/04/29 09:58:34;;;;;;;15.63;14.13;;;;;;;;;;5020939;28;20533;-70
2021/04/29 10:01:00;;;;;;;16.13;13.77;;;;;;;;;;5006079;28;20442;-71
2021/04/29 10:03:26;;;;;;;16.60;13.33;;;;;;;;;;5006272;28;21317;-70
2021/04/29 10:05:54;;;;;;;15.03;13.43;;;;;;;;;;5007958;28;20459;-71
2021/04/29 10:08:27;;;;;;;18.27;14.70;;;;;;;;;;5026225;28;20474;-70
2021/04/29 10:10:54;;;;;;;17.83;14.00;;;;;;;;;;5004582;28;20471;-70
2021/04/29 10:13:20;;;;;;;16.67;14.30;;;;;;;;;;5020376;28;20439;-71
2021/04/29 10:15:49;;;;;;;21.60;14.30;;;;;;;;;;4996975;28;20475;-71
2021/04/29 10:18:16;;;;;;;20.70;14.33;;;;;;;;;;5026700;28;20441;-70
2021/04/29 10:20:50;;;;;;;19.10;14.33;;;;;;;;;;5007993;28;20439;-70
2021/04/29 10:23:17;;;;;;;17.00;15.40;;;;;;;;;;5019939;28;20481;-69
2021/04/29 10:25:48;;;;;;;16.80;14.53;;;;;;;;;;5015440;28;20458;-69
2021/04/29 10:28:14;;;;;;;17.30;14.63;;;;;;;;;;5022816;28;20497;-70
2021/04/29 10:30:40;;;;;;;17.77;14.87;;;;;;;;;;5007318;28;20964;-70
2021/04/29 10:33:20;;;;;;;18.17;15.57;;;;;;;;;;5012646;28;20489;-70
2021/04/29 10:35:53;;;;;;;18.80;16.80;;;;;;;;;;5016474;28;20532;-70
2021/04/29 10:38:37;;;;;;;18.87;16.90;;;;;;;;;;5008825;28;20447;-70
2021/04/29 10:41:16;;;;;;;20.43;16.97;;;;;;;;;;4999832;28;21035;-69
2021/04/29 10:43:42;;;;;;;20.10;18.13;;;;;;;;;;5021966;28;20473;-72
2021/04/29 10:46:09;;;;;;;18.90;17.00;;;;;;;;;;4996939;28;22375;-72
2021/04/29 10:48:38;;;;;;;18.80;16.90;;;;;;;;;;5012244;28;20427;-73
2021/04/29 10:51:11;;;;;;;19.07;16.90;;;;;;;;;;5003529;28;20463;-71
2021/04/29 10:53:38;;;;;;;20.90;18.37;;;;;;;;;;5003548;28;20858;-72
2021/04/29 10:56:07;;;;;;;20.63;18.37;;;;;;;;;;5018702;28;20462;-71
2021/04/29 10:58:33;;;;;;;19.70;17.80;;;;;;;;;;5005046;28;20538;-72
2021/04/29 11:01:07;;;;;;;19.53;17.43;;;;;;;;;;5020992;28;20564;-72
2021/04/29 11:03:52;;;;;;;17.77;16.03;;;;;;;;;;5023020;28;20468;-72
2021/04/29 11:06:19;;;;;;;18.70;16.80;;;;;;;;;;5010298;28;20471;-71
2021/04/29 11:08:50;;;;;;;17.87;16.17;;;;;;;;;;5022370;28;20469;-72
2021/04/29 11:11:36;;;;;;;17.87;15.97;;;;;;;;;;5004785;28;20438;-72
2021/04/29 11:14:15;;;;;;;18.40;16.10;;;;;;;;;;5012252;28;20442;-70
2021/04/29 11:16:46;;;;;;;11.60;10.57;;;;;;;;;;5016947;28;20963;-72
2021/04/29 11:19:30;;;;;;;12.23;11.00;;;;;;;;;;5022536;28;20427;-73
2021/04/29 11:22:07;;;;;;;13.90;12.43;;;;;;;;;;4998726;28;20470;-72
2021/04/29 11:24:38;;;;;;;15.60;13.80;;;;;;;;;;5016017;28;20435;-72
2021/04/29 11:27:04;;;;;;;15.80;14.20;;;;;;;;;;5004782;28;20465;-73
2021/04/29 11:29:40;;;;;;;14.20;12.27;;;;;;;;;;5025053;28;21003;-71
2021/04/29 11:32:06;;;;;;;13.63;12.33;;;;;;;;;;5003584;28;20867;-70
2021/04/29 11:34:48;;;;;;;11.40;10.30;;;;;;;;;;5020942;28;20435;-72
2021/04/29 11:37:15;;;;;;;11.47;10.37;;;;;;;;;;5016179;28;20466;-70
2021/04/29 11:39:41;;;;;;;11.33;9.80;;;;;;;;;;5022511;28;20511;-73
2021/04/29 11:42:10;;;;;;;15.73;10.10;;;;;;;;;;5026966;28;20462;-70
2021/04/29 11:44:36;;;;;;;14.00;11.93;;;;;;;;;;5025832;28;20442;-73
2021/04/29 11:47:12;;;;;;;16.17;12.30;;;;;;;;;;5025261;28;20553;-72
2021/04/29 11:49:38;;;;;;;19.40;14.23;;;;;;;;;;5009686;28;20477;-72
2021/04/29 11:52:04;;;;;;;17.17;12.90;;;;;;;;;;5007727;28;20947;-72
2021/04/29 11:54:30;;;;;;;14.03;12.50;;;;;;;;;;5008318;28;20528;-72
2021/04/29 11:57:01;;;;;;;12.30;11.10;;;;;;;;;;5024038;28;20959;-73
2021/04/29 11:59:31;;;;;;;15.17;12.13;;;;;;;;;;5010156;28;20438;-72
2021/04/29 12:01:58;;;;;;;13.10;11.80;;;;;;;;;;5028798;28;20427;-73
2021/04/29 12:04:25;;;;;;;13.70;10.60;;;;;;;;;;5025414;28;20960;-72
2021/04/29 12:06:52;;;;;;;12.40;11.20;;;;;;;;;;5007542;28;20505;-72
2021/04/29 12:09:19;;;;;;;16.00;12.10;;;;;;;;;;5002612;28;20435;-73
2021/04/29 12:11:45;;;;;;;13.37;11.97;;;;;;;;;;5028032;28;20431;-72
2021/04/29 12:14:15;;;;;;;15.37;13.77;;;;;;;;;;5008259;28;20450;-73
2021/04/29 12:16:41;;;;;;;16.10;13.60;;;;;;;;;;5021315;28;20450;-72
2021/04/29 12:19:07;;;;;;;14.80;13.30;;;;;;;;;;5014337;28;20431;-73
2021/04/29 12:21:34;;;;;;;12.30;10.47;;;;;;;;;;5019259;28;20488;-72
2021/04/29 12:24:02;;;;;;;12.77;11.57;;;;;;;;;;5015325;28;20525;-71
2021/04/29 12:26:29;;;;;;;11.03;9.17;;;;;;;;;;5004871;28;21019;-72
2021/04/29 12:28:59;;;;;;;9.83;8.83;;;;;;;;;;5024830;28;20463;-72
2021/04/29 12:31:25;;;;;;;7.07;6.47;;;;;;;;;;5018635;28;20443;-73
2021/04/29 12:33:55;;;;;;;6.60;5.97;;;;;;;;;;5008296;28;20920;-72
2021/04/29 12:36:22;;;;;;;7.63;6.20;;;;;;;;;;5002016;28;20505;-73
2021/04/29 12:38:48;;;;;;;6.90;6.30;;;;;;;;;;5005505;28;20873;-71
2021/04/29 12:41:15;;;;;;;10.63;7.10;;;;;;;;;;5022557;28;20438;-71
2021/04/29 12:43:41;;;;;;;8.17;6.97;;;;;;;;;;5024898;28;20541;-72
2021/04/29 12:46:07;;;;;;;16.90;11.20;;;;;;;;;;5007469;28;20490;-72
2021/04/29 12:48:36;;;;;;;29.80;15.17;;;;;;;;;;5004581;28;20435;-71
2021/04/29 12:51:08;;;;;;;16.60;10.70;;;;;;;;;;5025995;28;20958;-72
2021/04/29 12:53:35;;;;;;;12.57;7.97;;;;;;;;;;5005617;28;20458;-71
2021/04/29 12:56:01;;;;;;;9.83;8.07;;;;;;;;;;5005686;28;20462;-72
2021/04/29 12:58:28;;;;;;;24.70;14.30;;;;;;;;;;5020755;28;20432;-72
2021/04/29 13:00:56;;;;;;;9.43;8.43;;;;;;;;;;5023365;28;20451;-72
2021/04/29 13:03:35;;;;;;;9.20;8.30;;;;;;;;;;5022234;28;20972;-71
2021/04/29 13:06:06;;;;;;;9.33;7.90;;;;;;;;;;5020950;28;20509;-74
2021/04/29 13:08:45;;;;;;;7.20;6.50;;;;;;;;;;5018165;28;20528;-72
2021/04/29 13:11:11;;;;;;;8.00;7.20;;;;;;;;;;5019414;28;20454;-73
2021/04/29 13:13:37;;;;;;;8.37;7.40;;;;;;;;;;5022423;28;20462;-72
2021/04/29 13:16:03;;;;;;;8.03;7.30;;;;;;;;;;5024683;28;20616;-72
2021/04/29 13:18:30;;;;;;;5.83;5.30;;;;;;;;;;5021540;28;20974;-72
2021/04/29 13:20:56;;;;;;;5.63;5.17;;;;;;;;;;5002868;28;20998;-72
2021/04/29 13:23:22;;;;;;;6.73;5.17;;;;;;;;;;5017465;28;20554;-74
2021/04/29 13:25:49;;;;;;;6.37;5.20;;;;;;;;;;5003570;28;20459;-73
2021/04/29 13:28:15;;;;;;;5.70;5.00;;;;;;;;;;5028644;28;20435;-72
2021/04/29 13:30:42;;;;;;;5.20;4.80;;;;;;;;;;4998503;28;20446;-73
2021/04/29 13:33:10;;;;;;;6.53;4.53;;;;;;;;;;5030642;28;20449;-73
2021/04/29 13:35:36;;;;;;;4.50;4.20;;;;;;;;;;5003094;28;20467;-73
2021/04/29 13:38:02;;;;;;;5.20;3.90;;;;;;;;;;5002722;28;20438;-73
2021/04/29 13:40:28;;;;;;;5.00;4.20;;;;;;;;;;5050300;28;20445;-72
2021/04/29 13:42:54;;;;;;;5.30;4.20;;;;;;;;;;5039298;28;20463;-73
2021/04/29 13:45:20;;;;;;;4.80;4.40;;;;;;;;;;5007502;28;20968;-75
2021/04/29 13:47:46;;;;;;;4.80;4.20;;;;;;;;;;5028899;28;20465;-73
2021/04/29 13:50:12;;;;;;;6.50;5.70;;;;;;;;;;5011581;28;20462;-73
2021/04/29 13:52:38;;;;;;;6.13;4.90;;;;;;;;;;5023481;28;20434;-71
2021/04/29 13:55:05;;;;;;;5.87;5.33;;;;;;;;;;5005519;28;20447;-73
2021/04/29 13:57:31;;;;;;;6.07;5.07;;;;;;;;;;5026791;28;20514;-71
2021/04/29 13:59:58;;;;;;;5.80;5.30;;;;;;;;;;5010679;28;20439;-73
2021/04/29 14:02:25;;;;;;;6.67;6.10;;;;;;;;;;5002636;28;20471;-73
2021/04/29 14:04:51;;;;;;;7.70;6.90;;;;;;;;;;5032797;28;20820;-72
2021/04/29 14:07:17;;;;;;;7.23;6.60;;;;;;;;;;5007639;28;20462;-73
2021/04/29 14:09:43;;;;;;;7.80;6.63;;;;;;;;;;5023258;28;20440;-69
2021/04/29 14:12:09;;;;;;;8.63;7.23;;;;;;;;;;5019940;28;20440;-70
2021/04/29 14:14:35;;;;;;;8.87;8.07;;;;;;;;;;5024014;28;20447;-70
2021/04/29 14:17:01;;;;;;;11.23;7.67;;;;;;;;;;5003573;28;20532;-70
2021/04/29 14:19:27;;;;;;;8.10;7.30;;;;;;;;;;5026942;28;20562;-71
2021/04/29 14:21:53;;;;;;;10.40;8.00;;;;;;;;;;5002238;28;21014;-72